createdAt,value
2019-02-18T00:02:12.791Z,10.10
2019-02-18T00:04:42.041Z,10.57
2019-02-18T00:07:14.597Z,10.37
2019-02-18T00:09:42.310Z,9.57
2019-02-18T00:12:11.540Z,10.03
2019-02-18T00:14:40.813Z,10.30
2019-02-18T00:17:10.072Z,11.23
2019-02-18T00:19:39.320Z,10.33
2019-02-18T00:22:08.547Z,10.33
2019-02-18T00:24:37.832Z,10.13
2019-02-18T00:27:07.070Z,9.40
2019-02-18T00:29:36.336Z,9.87
2019-02-18T00:32:05.579Z,9.77
2019-02-18T00:34:34.891Z,9.97
2019-02-18T00:37:04.106Z,9.80
2019-02-18T00:39:33.373Z,10.17
2019-02-18T00:42:02.614Z,9.13
2019-02-18T00:44:31.839Z,9.57
2019-02-18T00:47:01.070Z,9.00
2019-02-18T00:49:30.293Z,9.30
2019-02-18T00:51:59.563Z,8.90
2019-02-18T00:54:28.788Z,9.57
2019-02-18T00:56:58.053Z,10.00
2019-02-18T00:59:27.289Z,9.10
2019-02-18T01:01:56.548Z,9.40
2019-02-18T01:04:25.843Z,9.47
2019-02-18T01:06:55.091Z,9.00
2019-02-18T01:09:24.299Z,9.10
2019-02-18T01:11:53.539Z,9.33
2019-02-18T01:14:22.759Z,8.80
2019-02-18T01:16:52.021Z,9.07
2019-02-18T01:19:21.248Z,8.80
2019-02-18T01:21:50.506Z,9.13
2019-02-18T01:24:19.716Z,8.93
2019-02-18T01:26:48.968Z,9.60
2019-02-18T01:29:18.204Z,9.20
2019-02-18T01:31:47.462Z,8.83
2019-02-18T01:34:16.676Z,8.27
2019-02-18T01:36:45.911Z,8.33
2019-02-18T01:39:15.119Z,9.43
2019-02-18T01:41:44.362Z,8.60
2019-02-18T01:44:13.590Z,8.83
2019-02-18T01:46:42.851Z,8.37
2019-02-18T01:49:12.078Z,9.00
2019-02-18T01:51:41.356Z,9.27
2019-02-18T01:54:10.588Z,9.97
2019-02-18T01:56:39.845Z,9.23
2019-02-18T01:59:09.084Z,9.60
2019-02-18T02:01:38.332Z,9.43
2019-02-18T02:04:07.571Z,9.00
2019-02-18T02:06:36.824Z,9.83
2019-02-18T02:09:09.112Z,8.93
2019-02-18T02:11:38.368Z,8.97
2019-02-18T02:14:07.609Z,9.20
2019-02-18T02:16:36.862Z,8.47
2019-02-18T02:19:06.109Z,8.53
2019-02-18T02:21:35.352Z,8.73
2019-02-18T02:24:04.582Z,8.90
2019-02-18T02:26:33.834Z,8.70
2019-02-18T02:29:03.058Z,8.77
2019-02-18T02:31:32.316Z,8.73
2019-02-18T02:34:01.522Z,8.60
2019-02-18T02:36:30.784Z,8.57
2019-02-18T02:39:00.005Z,8.70
2019-02-18T02:41:29.254Z,9.03
2019-02-18T02:43:58.472Z,8.47
2019-02-18T02:46:27.724Z,8.43
2019-02-18T02:48:56.944Z,8.27
2019-02-18T02:51:26.204Z,8.70
2019-02-18T02:53:55.456Z,8.97
2019-02-18T02:56:24.693Z,8.40
2019-02-18T02:58:53.935Z,8.10
2019-02-18T03:01:23.156Z,8.63
2019-02-18T03:03:52.418Z,7.97
2019-02-18T03:06:21.646Z,8.30
2019-02-18T03:08:50.915Z,8.47
2019-02-18T03:11:20.135Z,7.33
2019-02-18T03:13:49.378Z,7.87
2019-02-18T03:16:18.604Z,8.20
2019-02-18T03:18:47.846Z,7.77
2019-02-18T03:21:17.070Z,7.70
2019-02-18T03:23:46.319Z,8.50
2019-02-18T03:26:15.544Z,8.37
2019-02-18T03:29:43.721Z,8.80
2019-02-18T03:32:12.966Z,9.70
2019-02-18T03:34:44.380Z,9.27
2019-02-18T03:37:13.670Z,8.83
2019-02-18T03:39:42.891Z,7.90
2019-02-18T03:42:12.120Z,7.97
2019-02-18T03:44:41.374Z,8.03
2019-02-18T03:47:10.605Z,7.90
2019-02-18T03:49:39.864Z,8.17
2019-02-18T03:52:09.124Z,8.00
2019-02-18T03:54:38.377Z,7.60
2019-02-18T03:57:07.746Z,8.67
2019-02-18T03:59:36.982Z,7.77
2019-02-18T04:02:06.320Z,8.43
2019-02-18T04:04:35.700Z,7.40
2019-02-18T04:07:04.922Z,8.63
2019-02-18T04:09:34.206Z,9.37
2019-02-18T04:12:03.480Z,10.17
2019-02-18T04:14:32.745Z,10.60
2019-02-18T04:17:02.212Z,10.10
2019-02-18T04:19:31.522Z,9.70
2019-02-18T04:22:00.748Z,10.13
2019-02-18T04:24:30.016Z,10.07
2019-02-18T04:26:59.253Z,10.20
2019-02-18T04:29:28.507Z,10.63
2019-02-18T04:31:57.741Z,9.13
2019-02-18T04:34:27.002Z,8.97
2019-02-18T04:36:56.249Z,8.40
2019-02-18T04:39:25.518Z,8.80
2019-02-18T04:41:54.751Z,9.07
2019-02-18T04:44:24.013Z,9.50
2019-02-18T04:46:53.225Z,8.37
2019-02-18T04:49:22.477Z,8.73
2019-02-18T04:51:51.734Z,8.47
2019-02-18T04:54:20.986Z,8.77
2019-02-18T04:56:50.203Z,8.13
2019-02-18T04:59:19.454Z,8.03
2019-02-18T05:01:48.675Z,7.90
2019-02-18T05:04:17.928Z,7.83
2019-02-18T05:06:47.167Z,8.30
2019-02-18T05:09:16.412Z,7.73
2019-02-18T05:11:45.626Z,8.10
2019-02-18T05:14:14.886Z,8.47
2019-02-18T05:16:44.109Z,8.10
2019-02-18T05:19:13.366Z,8.07
2019-02-18T05:21:42.603Z,7.77
2019-02-18T05:24:11.882Z,7.80
2019-02-18T05:26:41.135Z,7.63
2019-02-18T05:29:10.363Z,8.47
2019-02-18T05:31:39.625Z,9.07
2019-02-18T05:34:08.862Z,8.97
2019-02-18T05:36:38.136Z,8.37
2019-02-18T05:39:17.592Z,8.57
2019-02-18T05:41:39.397Z,8.07
2019-02-18T05:44:09.069Z,8.00
2019-02-18T05:46:38.479Z,8.47
2019-02-18T05:49:08.057Z,8.73
2019-02-18T05:51:37.424Z,8.30
2019-02-18T05:54:06.690Z,7.97
2019-02-18T05:56:35.948Z,7.87
2019-02-18T05:59:05.432Z,7.87
2019-02-18T06:01:34.690Z,7.67
2019-02-18T06:04:03.936Z,8.10
2019-02-18T06:06:33.210Z,7.73
2019-02-18T06:09:02.432Z,8.20
2019-02-18T06:11:31.682Z,7.80
2019-02-18T06:14:00.905Z,8.17
2019-02-18T06:16:30.169Z,8.90
2019-02-18T06:18:59.381Z,8.53
2019-02-18T06:21:28.642Z,8.80
2019-02-18T06:23:58.092Z,8.57
2019-02-18T06:26:27.329Z,8.13
2019-02-18T06:28:56.555Z,8.50
2019-02-18T06:31:25.807Z,8.10
2019-02-18T06:33:55.043Z,8.20
2019-02-18T06:36:24.298Z,8.10
2019-02-18T06:38:53.527Z,8.30
2019-02-18T06:41:22.791Z,8.30
2019-02-18T06:43:52.017Z,8.67
2019-02-18T06:46:46.075Z,8.70
2019-02-18T06:49:17.807Z,10.73
2019-02-18T06:51:47.076Z,8.93
2019-02-18T06:54:16.306Z,10.80
2019-02-18T06:57:01.241Z,10.30
2019-02-18T06:59:43.621Z,9.57
2019-02-18T07:02:17.788Z,9.60
2019-02-18T07:04:59.358Z,9.30
2019-02-18T07:07:53.682Z,10.60
2019-02-18T07:10:41.893Z,10.47
2019-02-18T07:13:11.113Z,10.30
2019-02-18T07:15:40.349Z,9.77
2019-02-18T07:18:09.592Z,9.00
2019-02-18T07:20:38.811Z,9.10
2019-02-18T07:23:08.048Z,9.63
2019-02-18T07:25:37.262Z,8.63
2019-02-18T07:28:06.505Z,8.37
2019-02-18T07:30:35.741Z,8.47
2019-02-18T07:33:05.032Z,9.90
2019-02-18T07:35:34.316Z,10.27
2019-02-18T07:38:03.565Z,10.23
2019-02-18T07:40:32.886Z,8.53
2019-02-18T07:43:02.338Z,7.13
2019-02-18T07:45:31.656Z,7.63
2019-02-18T07:48:00.952Z,7.13
2019-02-18T07:50:30.183Z,7.43
2019-02-18T07:52:59.525Z,7.27
2019-02-18T07:55:28.746Z,7.73
2019-02-18T07:57:57.996Z,7.63
2019-02-18T08:00:27.207Z,7.10
2019-02-18T08:02:56.462Z,7.20
2019-02-18T08:05:25.695Z,7.70
2019-02-18T08:07:54.937Z,7.87
2019-02-18T08:10:24.171Z,6.90
2019-02-18T08:12:53.535Z,7.83
2019-02-18T08:15:22.763Z,7.70
2019-02-18T08:17:52.003Z,8.00
2019-02-18T08:20:21.237Z,8.60
2019-02-18T08:22:50.496Z,8.00
2019-02-18T08:25:19.733Z,8.87
2019-02-18T08:27:49.015Z,8.57
2019-02-18T08:30:18.234Z,8.67
2019-02-18T08:32:47.447Z,8.33
2019-02-18T08:35:16.692Z,9.33
2019-02-18T08:37:45.922Z,9.07
2019-02-18T08:40:22.047Z,9.60
2019-02-18T08:42:46.133Z,9.50
2019-02-18T08:45:15.592Z,10.70
2019-02-18T08:47:44.826Z,12.50
2019-02-18T08:50:14.087Z,12.10
2019-02-18T08:52:43.425Z,11.60
2019-02-18T08:55:13.239Z,12.10
2019-02-18T08:57:42.496Z,12.47
2019-02-18T09:00:14.581Z,12.10
2019-02-18T09:02:43.878Z,12.60
2019-02-18T09:05:14.003Z,12.10
2019-02-18T09:07:43.309Z,11.93
2019-02-18T09:10:12.663Z,12.23
2019-02-18T09:12:41.895Z,11.63
2019-02-18T09:15:13.955Z,11.30
2019-02-18T09:17:42.336Z,11.70
2019-02-18T09:20:11.646Z,11.87
2019-02-18T09:23:03.612Z,11.80
2019-02-18T09:25:46.790Z,11.67
2019-02-18T09:28:16.026Z,11.20
2019-02-18T09:30:47.776Z,12.17
2019-02-18T09:33:17.019Z,11.87
2019-02-18T09:35:46.291Z,12.57
2019-02-18T09:38:24.357Z,12.23
2019-02-18T09:40:51.365Z,11.33
2019-02-18T09:43:18.667Z,12.17
2019-02-18T09:45:47.917Z,11.43
2019-02-18T09:48:17.173Z,11.07
2019-02-18T09:50:46.510Z,11.90
2019-02-18T09:53:15.770Z,11.63
2019-02-18T09:55:45.014Z,11.20
2019-02-18T09:58:14.264Z,11.07
2019-02-18T10:16:33.033Z,11.37
2019-02-18T10:19:02.287Z,11.70
2019-02-18T10:21:31.594Z,12.10
2019-02-18T10:24:00.823Z,12.07
2019-02-18T10:26:30.142Z,12.37
2019-02-18T10:28:59.379Z,12.23
2019-02-18T10:31:28.648Z,12.13
2019-02-18T10:33:57.870Z,12.43
2019-02-18T10:36:29.439Z,12.88
2019-02-18T10:38:58.744Z,13.68
2019-02-18T10:41:28.359Z,12.67
2019-02-18T10:43:57.646Z,13.53
2019-02-18T10:46:27.202Z,12.30
2019-02-18T10:48:56.430Z,13.40
2019-02-18T10:51:25.726Z,13.30
2019-02-18T10:53:54.959Z,13.77
2019-02-18T10:56:24.219Z,13.72
2019-02-18T10:58:53.456Z,14.35
2019-02-18T11:01:22.726Z,15.20
2019-02-18T11:03:51.964Z,14.67
2019-02-18T11:06:21.256Z,14.70
2019-02-18T11:08:50.494Z,14.67
2019-02-18T11:11:19.803Z,14.10
2019-02-18T11:13:49.052Z,13.90
2019-02-18T11:16:18.309Z,12.93
2019-02-18T11:18:47.371Z,13.53
2019-02-18T11:21:16.643Z,14.33
2019-02-18T11:23:45.914Z,14.20
2019-02-18T11:26:15.170Z,14.37
2019-02-18T11:28:44.423Z,14.47
2019-02-18T11:31:13.682Z,13.50
2019-02-18T11:33:43.356Z,13.33
2019-02-18T11:36:12.665Z,12.07
2019-02-18T11:38:42.093Z,12.60
2019-02-18T11:41:11.373Z,12.77
2019-02-18T11:43:40.621Z,12.77
2019-02-18T11:46:09.883Z,13.60
2019-02-18T11:48:39.429Z,13.57
2019-02-18T11:51:08.709Z,12.97
2019-02-18T11:53:37.993Z,12.70
2019-02-18T11:56:07.268Z,13.30
2019-02-18T11:58:36.529Z,13.10
2019-02-18T12:01:05.799Z,12.67
2019-02-18T12:03:35.044Z,12.87
2019-02-18T12:06:04.306Z,12.27
2019-02-18T12:08:33.549Z,13.30
2019-02-18T12:11:02.777Z,13.00
2019-02-18T12:13:31.827Z,13.60
2019-02-18T12:16:01.078Z,12.97
2019-02-18T12:18:30.722Z,12.70
2019-02-18T12:20:59.991Z,12.80
2019-02-18T12:23:29.262Z,13.57
2019-02-18T12:25:58.489Z,13.60
2019-02-18T12:28:27.747Z,13.13
2019-02-18T12:30:56.978Z,13.67
2019-02-18T12:33:26.747Z,12.90
2019-02-18T12:35:55.987Z,13.00
2019-02-18T12:38:25.250Z,12.70
2019-02-18T12:40:54.791Z,13.33
2019-02-18T12:43:24.053Z,13.80
2019-02-18T12:45:53.342Z,13.27
2019-02-18T12:48:22.907Z,13.83
2019-02-18T12:50:52.560Z,13.83
2019-02-18T12:53:21.886Z,13.67
2019-02-18T12:55:51.114Z,13.63
2019-02-18T12:58:20.392Z,13.60
2019-02-18T13:00:49.658Z,14.27
2019-02-18T13:03:18.933Z,13.37
2019-02-18T13:05:48.505Z,13.87
2019-02-18T13:08:17.855Z,14.47
2019-02-18T13:10:47.124Z,16.10
2019-02-18T13:13:16.468Z,13.90
2019-02-18T13:15:46.164Z,14.57
2019-02-18T13:18:16.270Z,27.47
2019-02-18T13:20:45.577Z,13.77
2019-02-18T13:23:14.872Z,18.63
2019-02-18T13:25:47.530Z,18.40
2019-02-18T13:28:15.105Z,13.27
2019-02-18T13:30:44.467Z,13.63
2019-02-18T13:33:13.730Z,14.43
2019-02-18T13:35:42.971Z,13.43
2019-02-18T13:38:12.627Z,23.27
2019-02-18T13:40:44.490Z,14.03
2019-02-18T13:43:13.759Z,14.50
2019-02-18T13:45:43.007Z,14.20
2019-02-18T13:48:12.307Z,13.80
2019-02-18T13:50:41.611Z,15.10
2019-02-18T13:53:11.080Z,12.73
2019-02-18T13:55:40.439Z,13.13
2019-02-18T13:58:10.110Z,12.80
2019-02-18T14:00:39.633Z,14.00
2019-02-18T14:03:08.893Z,12.97
2019-02-18T14:05:38.153Z,14.30
2019-02-18T14:08:07.425Z,22.93
2019-02-18T14:10:37.019Z,12.07
2019-02-18T14:13:06.311Z,11.27
2019-02-18T14:15:35.654Z,11.17
2019-02-18T14:18:07.462Z,11.57
2019-02-18T14:20:37.163Z,11.87
2019-02-18T14:23:06.753Z,12.10
2019-02-18T14:25:35.990Z,12.13
2019-02-18T14:28:05.448Z,11.80
2019-02-18T14:30:34.698Z,11.97
2019-02-18T14:33:04.005Z,12.00
2019-02-18T14:35:33.685Z,11.73
2019-02-18T14:38:02.967Z,11.00
2019-02-18T14:40:32.376Z,11.47
2019-02-18T14:43:01.637Z,11.23
2019-02-18T14:45:30.895Z,11.23
2019-02-18T14:48:00.162Z,11.50
2019-02-18T14:50:30.180Z,11.27
2019-02-18T14:52:59.554Z,11.87
2019-02-18T14:55:28.805Z,11.87
2019-02-18T14:57:58.101Z,11.90
2019-02-18T15:00:27.358Z,10.97
2019-02-18T15:02:57.964Z,10.23
2019-02-18T15:05:27.545Z,10.63
2019-02-18T15:07:56.788Z,10.47
2019-02-18T15:10:26.219Z,10.60
2019-02-18T15:12:55.453Z,9.90
2019-02-18T15:15:24.724Z,11.13
2019-02-18T15:17:53.953Z,10.33
2019-02-18T15:20:25.501Z,11.60
2019-02-18T15:22:54.773Z,12.80
2019-02-18T15:25:25.225Z,12.13
2019-02-18T15:27:54.506Z,12.03
2019-02-18T15:30:23.798Z,12.53
2019-02-18T15:32:53.378Z,13.13
2019-02-18T15:35:22.632Z,12.33
2019-02-18T15:37:51.884Z,11.80
2019-02-18T15:40:21.652Z,11.83
2019-02-18T15:42:50.903Z,11.97
2019-02-18T15:45:20.354Z,12.33
2019-02-18T15:47:49.690Z,13.47
2019-02-18T15:50:19.012Z,13.33
2019-02-18T15:52:48.262Z,13.40
2019-02-18T15:55:17.519Z,13.73
2019-02-18T15:57:46.759Z,13.83
2019-02-18T16:00:18.895Z,13.30
2019-02-18T16:02:48.704Z,13.97
2019-02-18T16:05:17.970Z,13.37
2019-02-18T16:07:47.225Z,14.90
2019-02-18T16:10:16.754Z,13.77
2019-02-18T16:12:50.788Z,13.27
2019-02-18T16:15:19.263Z,13.43
2019-02-18T16:17:48.505Z,12.83
2019-02-18T16:20:17.774Z,12.70
2019-02-18T16:22:47.032Z,13.80
2019-02-18T16:25:18.244Z,13.70
2019-02-18T16:27:47.707Z,13.10
2019-02-18T16:30:17.184Z,13.70
2019-02-18T16:32:47.109Z,14.47
2019-02-18T16:35:16.363Z,15.20
2019-02-18T16:37:45.614Z,14.70
2019-02-18T16:40:16.321Z,14.10
2019-02-18T16:42:45.562Z,13.90
2019-02-18T16:45:15.276Z,14.20
2019-02-18T16:47:44.510Z,15.07
2019-02-18T16:50:14.183Z,15.97
2019-02-18T16:52:43.640Z,15.83
2019-02-18T16:55:13.650Z,15.63
2019-02-18T16:57:43.015Z,14.17
2019-02-18T17:00:25.763Z,16.10
2019-02-18T17:02:55.350Z,15.60
2019-02-18T17:05:24.683Z,15.67
2019-02-18T17:07:53.911Z,14.80
2019-02-18T17:10:23.161Z,15.00
2019-02-18T17:12:52.567Z,15.83
2019-02-18T17:15:22.856Z,16.07
2019-02-18T17:17:52.106Z,15.70
2019-02-18T17:20:21.384Z,15.87
2019-02-18T17:22:52.710Z,16.27
2019-02-18T17:25:22.037Z,17.57
2019-02-18T17:27:52.528Z,18.83
2019-02-18T17:30:21.799Z,16.37
2019-02-18T17:32:51.012Z,16.13
2019-02-18T17:35:20.280Z,16.37
2019-02-18T17:37:49.520Z,17.00
2019-02-18T17:40:18.780Z,17.83
2019-02-18T17:42:48.029Z,21.77
2019-02-18T17:45:17.333Z,23.53
2019-02-18T17:47:46.576Z,20.73
2019-02-18T17:50:15.913Z,18.57
2019-02-18T17:52:46.157Z,17.63
2019-02-18T17:55:15.641Z,16.63
2019-02-18T17:57:44.885Z,16.07
2019-02-18T18:00:18.788Z,15.87
2019-02-18T18:02:48.022Z,17.87
2019-02-18T18:05:18.068Z,18.73
2019-02-18T18:07:47.346Z,19.40
2019-02-18T18:10:17.112Z,35.73
2019-02-18T18:12:46.387Z,28.60
2019-02-18T18:15:15.643Z,21.50
2019-02-18T18:17:44.922Z,21.67
2019-02-18T18:20:14.769Z,31.60
2019-02-18T18:22:44.008Z,27.70
2019-02-18T18:25:14.240Z,19.50
2019-02-18T18:27:44.025Z,19.20
2019-02-18T18:30:13.724Z,19.53
2019-02-18T18:32:42.979Z,20.33
2019-02-18T18:35:12.546Z,19.53
2019-02-18T18:37:41.807Z,18.73
2019-02-18T18:40:12.730Z,19.03
2019-02-18T18:42:41.992Z,18.83
2019-02-18T18:45:12.590Z,20.57
2019-02-18T18:47:41.955Z,18.40
2019-02-18T18:50:17.378Z,18.70
2019-02-18T18:52:46.934Z,18.30
2019-02-18T18:55:16.168Z,16.47
2019-02-18T18:57:45.435Z,16.80
2019-02-18T19:00:20.132Z,16.87
2019-02-18T19:02:49.387Z,16.73
2019-02-18T19:05:19.352Z,16.57
2019-02-18T19:07:48.622Z,18.20
2019-02-18T19:10:18.002Z,20.47
2019-02-18T19:12:47.300Z,19.67
2019-02-18T19:15:16.569Z,17.33
2019-02-18T19:17:45.834Z,17.70
2019-02-18T19:20:15.438Z,16.77
2019-02-18T19:22:44.705Z,16.90
2019-02-18T19:25:13.945Z,16.83
2019-02-18T19:27:43.213Z,16.50
2019-02-18T19:30:16.119Z,15.90
2019-02-18T19:32:45.387Z,16.40
2019-02-18T19:35:18.797Z,16.47
2019-02-18T19:37:48.069Z,17.17
2019-02-18T19:40:17.304Z,18.53
2019-02-18T19:42:46.569Z,20.13
2019-02-18T19:45:18.106Z,20.37
2019-02-18T19:47:47.373Z,20.57
2019-02-18T19:50:18.209Z,21.23
2019-02-18T19:52:47.713Z,21.20
2019-02-18T19:55:16.953Z,18.93
2019-02-18T19:57:46.192Z,19.77
2019-02-18T20:00:19.975Z,20.67
2019-02-18T20:02:49.258Z,19.87
2019-02-18T20:05:18.491Z,20.83
2019-02-18T20:07:47.878Z,18.90
2019-02-18T20:10:17.138Z,19.57
2019-02-18T20:12:46.394Z,22.07
2019-02-18T20:15:16.452Z,22.00
2019-02-18T20:17:45.702Z,23.50
2019-02-18T20:20:14.953Z,22.10
2019-02-18T20:22:44.787Z,18.93
2019-02-18T20:25:14.531Z,18.70
2019-02-18T20:27:43.806Z,16.03
2019-02-18T20:30:13.322Z,15.57
2019-02-18T20:32:42.572Z,15.10
2019-02-18T20:35:12.722Z,15.60
2019-02-18T20:37:41.953Z,15.90
2019-02-18T20:40:11.939Z,16.70
2019-02-18T20:42:42.402Z,16.47
2019-02-18T20:45:12.103Z,18.13
2019-02-18T20:47:41.356Z,19.47
2019-02-18T20:50:11.052Z,21.13
2019-02-18T20:52:40.309Z,19.93
2019-02-18T20:55:11.032Z,20.03
2019-02-18T20:57:40.585Z,18.87
2019-02-18T21:00:17.596Z,19.23
2019-02-18T21:02:46.871Z,18.77
2019-02-18T21:05:16.340Z,18.80
2019-02-18T21:07:45.946Z,19.13
2019-02-18T21:10:16.004Z,18.50
2019-02-18T21:12:46.241Z,17.63
2019-02-18T21:15:15.658Z,18.33
2019-02-18T21:17:44.918Z,21.00
2019-02-18T21:20:15.044Z,22.20
2019-02-18T21:22:44.307Z,22.83
2019-02-18T21:25:13.980Z,21.70
2019-02-18T21:27:43.254Z,20.93
2019-02-18T21:30:13.322Z,22.50
2019-02-18T21:32:42.667Z,25.60
2019-02-18T21:35:12.266Z,26.80
2019-02-18T21:37:42.563Z,25.47
2019-02-18T21:40:12.591Z,26.37
2019-02-18T21:42:41.890Z,22.77
2019-02-18T21:45:19.392Z,23.97
2019-02-18T21:47:49.745Z,22.70
2019-02-18T21:50:19.500Z,21.77
2019-02-18T21:52:48.770Z,23.60
2019-02-18T21:55:18.061Z,18.87
2019-02-18T21:57:47.737Z,19.07
2019-02-18T22:00:21.093Z,17.80
2019-02-18T22:02:50.564Z,18.60
2019-02-18T22:05:20.363Z,17.97
2019-02-18T22:07:52.083Z,19.20
2019-02-18T22:10:21.454Z,19.20
2019-02-18T22:12:50.706Z,19.50
2019-02-18T22:15:20.008Z,20.10
2019-02-18T22:17:50.359Z,18.73
2019-02-18T22:20:20.867Z,17.50
2019-02-18T22:22:50.981Z,16.33
2019-02-18T22:25:21.012Z,16.00
2019-02-18T22:27:51.450Z,15.80
2019-02-18T22:30:20.984Z,15.43
2019-02-18T22:32:50.288Z,15.43
2019-02-18T22:35:19.985Z,16.23
2019-02-18T22:37:51.005Z,16.40
2019-02-18T22:40:20.280Z,16.23
2019-02-18T22:42:49.584Z,16.43
2019-02-18T22:45:18.889Z,16.30
2019-02-18T22:47:48.211Z,16.23
2019-02-18T22:50:17.853Z,17.13
2019-02-18T22:52:47.158Z,17.23
2019-02-18T22:55:16.891Z,18.90
2019-02-18T22:57:46.961Z,20.27
2019-02-18T23:00:43.730Z,19.27
2019-02-18T23:03:13.417Z,16.30
2019-02-18T23:05:45.316Z,17.17
2019-02-18T23:08:16.850Z,17.10
2019-02-18T23:10:46.297Z,16.57
2019-02-18T23:13:15.669Z,20.30
2019-02-18T23:15:45.066Z,36.77
2019-02-18T23:18:14.565Z,30.57
2019-02-18T23:20:45.008Z,47.87
2019-02-18T23:23:14.336Z,24.47
2019-02-18T23:25:43.586Z,16.43
2019-02-18T23:28:12.835Z,19.83
2019-02-18T23:30:42.085Z,17.10
2019-02-18T23:33:11.334Z,16.30
2019-02-18T23:35:40.573Z,16.03
2019-02-18T23:38:09.829Z,15.77
2019-02-18T23:40:40.664Z,15.50
2019-02-18T23:43:10.294Z,15.87
2019-02-18T23:45:39.556Z,15.43
2019-02-18T23:48:08.889Z,16.87
2019-02-18T23:50:38.258Z,16.53
2019-02-18T23:53:09.891Z,17.87
2019-02-18T23:55:39.149Z,16.80
2019-02-18T23:58:08.413Z,15.50
